X-KDEN weather

CLOSED Denver Stapleton International Airport
Denver, Colorado, United States

Public forecast

Using degrees Fahrenheit for public forecast. Weather courtesy of forecast.io.

METAR (pilot weather report)

Closest report is Buckley Air Force Base, 7.3 nm (13.5 km) SE. Retrieved 2019/04/26 14:58 UTC (20 minutes ago):

KBKF 261458Z 22009KT 10SM FEW090 FEW140 BKN220 14/02 A3003 RMK AO2A SLP130 T01440020 58004

TAF (pilot weather forecast)

Closest forecast is Buckley Air Force Base, 7.3 nm (13.5 km) SE. Retrieved 2019/04/26 09:23 UTC (6 hours ago):

TAF KBKF 260907Z 2609/2715 17015G25KT 9999 FEW060 QNH3006INS BECMG 2610/2611 20009KT 9999 SKC QNH3003INS BECMG 2616/2617 24009KT 9999 VCSH BKN030 OVC050 QNH2989INS BECMG 2621/2622 22015G25KT 9999 VCTS SCT010 BKN030CB OVC050 QNH2978INS TEMPO 2700/2703 VRB30G45KT 6000 -TSRA BKN010CB OVC030 BECMG 2707/2708 36012G18KT 9999 NSW FEW030 SCT050 QNH2976INS TX22/2622Z TN08/2613Z